Billstown, Arkansas
Current Conditions -  °F | °C
As of 4:53 PM on Friday 31 Oct 2014 (Local Time) from KMWT Reporting Station
Clear Clear  
Wind Chill: 61°   Ceiling: Unl
Heat Index: 61°   Visibility: 10mi
Dew Point: 36°   Wind: 6mph
Humidity: 39%   Direction: NA
Pressure: 30.23"   Gusts: 20mph
Location:  34.0925°N, 93.718°W
Report Text: KMWT 312153Z AUTO VRB05G17KT 10SM CLR 16/02 A3023 RMK AO2 SLP238 T01610022
Loading
Personal Weather Stations






























Interactive Weather Map
Tropical Storm Tracking
New forecast layout! Learn more

10-Day Weather Forecast

Advertisements
Track Severe Weather on mobile